Time;durP1;ratioP1;P1;durP2;ratioP2;P2;SDS_P1;SDS_P2;PMS_P1;PMS_P2;Temp;Humidity;BMP_temperature;BMP_pressure;BME280_temperature;BME280_humidity;BME280_pressure;Samples;Min_cycle;Max_cycle;Signal;HPM_P1;HPM_P2
2022/11/16 00:01:55;;;;;;;0.32;0.32;;;10.00;99.90;;;;;;4949328;28;20045;-81
2022/11/16 00:04:20;;;;;;;0.35;0.35;;;10.10;99.90;;;;;;4976923;28;21626;-82
2022/11/16 00:06:48;;;;;;;0.30;0.30;;;10.10;99.90;;;;;;4994776;28;20037;-82
2022/11/16 00:09:23;;;;;;;0.45;0.45;;;10.10;99.90;;;;;;4978957;28;20038;-82
2022/11/16 00:11:50;;;;;;;1.38;1.00;;;10.10;99.90;;;;;;4975748;28;20042;-83
2022/11/16 00:14:17;;;;;;;0.40;0.40;;;10.10;99.90;;;;;;4978900;28;20251;-82
2022/11/16 00:16:43;;;;;;;0.40;0.40;;;10.10;99.90;;;;;;4980572;28;20053;-82
2022/11/16 00:19:10;;;;;;;0.30;0.30;;;10.10;99.90;;;;;;4979883;28;20046;-83
2022/11/16 00:21:36;;;;;;;0.40;0.40;;;10.10;99.90;;;;;;4995890;28;20130;-81
2022/11/16 00:24:02;;;;;;;0.47;0.47;;;10.10;99.90;;;;;;4982821;28;20042;-80
2022/11/16 00:26:28;;;;;;;0.52;0.52;;;10.10;99.90;;;;;;4980866;28;20054;-81
2022/11/16 00:28:54;;;;;;;0.30;0.30;;;10.00;99.90;;;;;;4985451;28;20128;-81
2022/11/16 00:31:20;;;;;;;;;;;10.10;99.90;;;;;;4984197;28;20045;-83
2022/11/16 00:33:47;;;;;;;0.35;0.35;;;10.10;99.90;;;;;;4982447;28;21069;-81
2022/11/16 00:36:16;;;;;;;0.45;0.45;;;10.10;99.90;;;;;;4983163;28;20058;-82
2022/11/16 00:38:42;;;;;;;0.40;0.40;;;10.10;99.90;;;;;;4989929;28;20056;-79
2022/11/16 00:41:08;;;;;;;0.85;0.85;;;10.10;99.90;;;;;;5000466;28;20050;-82
2022/11/16 00:43:35;;;;;;;0.50;0.50;;;10.10;99.90;;;;;;5000909;28;20033;-82
2022/11/16 00:46:01;;;;;;;0.50;0.45;;;10.10;99.90;;;;;;5003062;28;20042;-82
2022/11/16 00:48:26;;;;;;;0.40;0.40;;;10.10;99.90;;;;;;4986675;28;20041;-83
2022/11/16 00:50:52;;;;;;;0.65;0.65;;;10.10;99.90;;;;;;4984029;28;20054;-80
2022/11/16 00:53:21;;;;;;;0.40;0.40;;;10.10;99.90;;;;;;4989902;28;20081;-80
2022/11/16 00:55:47;;;;;;;0.30;0.30;;;10.10;99.90;;;;;;4985944;28;20045;-79
2022/11/16 00:58:14;;;;;;;0.40;0.40;;;10.10;99.90;;;;;;4971144;28;20468;-80
2022/11/16 01:00:42;;;;;;;0.52;0.52;;;10.10;99.90;;;;;;4985186;28;20498;-80
2022/11/16 01:03:07;;;;;;;0.35;0.35;;;10.10;99.90;;;;;;4982816;28;20132;-81
2022/11/16 01:05:33;;;;;;;0.40;0.40;;;10.10;99.90;;;;;;4973554;28;20175;-82
2022/11/16 01:07:59;;;;;;;0.50;0.50;;;10.20;99.90;;;;;;4999767;28;20676;-80
2022/11/16 01:10:26;;;;;;;0.40;0.40;;;10.10;99.90;;;;;;5003505;28;20400;-79
2022/11/16 01:12:53;;;;;;;0.52;0.52;;;10.20;99.90;;;;;;4986319;28;20092;-80
2022/11/16 01:15:22;;;;;;;0.40;0.40;;;10.10;99.90;;;;;;4986098;28;20049;-79
2022/11/16 01:17:48;;;;;;;0.40;0.40;;;10.10;99.90;;;;;;4983805;28;20096;-81
2022/11/16 01:20:17;;;;;;;0.50;0.50;;;10.20;99.90;;;;;;4970732;28;20037;-79
2022/11/16 01:22:43;;;;;;;0.88;0.88;;;10.20;99.90;;;;;;4985751;28;20056;-83
2022/11/16 01:25:10;;;;;;;0.50;0.50;;;10.20;99.90;;;;;;4982452;28;20041;-79
2022/11/16 01:27:37;;;;;;;0.93;0.93;;;10.20;99.90;;;;;;4986977;28;20061;-81
2022/11/16 01:30:04;;;;;;;0.50;0.50;;;10.20;99.90;;;;;;4986966;28;20487;-80
2022/11/16 01:32:30;;;;;;;0.50;0.50;;;10.20;99.90;;;;;;4966884;28;20045;-80
2022/11/16 01:34:56;;;;;;;0.40;0.40;;;10.20;99.90;;;;;;4951784;28;20038;-81
2022/11/16 01:37:22;;;;;;;0.60;0.60;;;10.20;99.90;;;;;;4967984;28;20480;-78
2022/11/16 01:39:49;;;;;;;0.45;0.45;;;10.20;99.90;;;;;;4985985;28;20121;-79
2022/11/16 01:42:27;;;;;;;0.40;0.40;;;10.20;99.90;;;;;;4987381;28;20050;-82
2022/11/16 01:45:22;;;;;;;0.45;0.45;;;10.20;99.90;;;;;;4997524;28;20047;-81
2022/11/16 01:47:48;;;;;;;0.43;0.43;;;10.20;99.90;;;;;;4978815;28;20124;-82
2022/11/16 01:50:17;;;;;;;0.40;0.40;;;10.20;99.90;;;;;;4972473;28;20416;-83
2022/11/16 01:52:52;;;;;;;0.47;0.47;;;10.30;99.90;;;;;;4984356;28;20049;-79
2022/11/16 01:55:18;;;;;;;0.40;0.40;;;10.20;99.90;;;;;;4983413;28;20054;-80
2022/11/16 01:57:46;;;;;;;0.60;0.60;;;10.20;99.90;;;;;;4984560;28;20042;-80
2022/11/16 02:00:13;;;;;;;0.40;0.40;;;10.20;99.90;;;;;;4990682;28;20049;-80
2022/11/16 02:02:44;;;;;;;0.43;0.43;;;10.30;99.90;;;;;;4989568;28;20383;-82
2022/11/16 02:05:14;;;;;;;0.30;0.30;;;10.30;99.90;;;;;;5008098;28;20038;-81
2022/11/16 02:09:52;;;;;;;0.57;0.57;;;10.30;99.90;;;;;;4990799;28;21491;-84
2022/11/16 02:10:42;;;;;;;0.50;0.50;;;10.30;99.90;;;;;;4997279;28;20438;-82
2022/11/16 02:13:39;;;;;;;0.47;0.47;;;10.20;99.90;;;;;;5000273;28;20133;-85
2022/11/16 02:16:29;;;;;;;0.43;0.43;;;10.30;99.90;;;;;;5014501;28;20472;-80
2022/11/16 02:19:10;;;;;;;0.50;0.50;;;10.30;99.90;;;;;;4989482;28;20062;-82
2022/11/16 02:22:00;;;;;;;0.45;0.45;;;10.30;99.90;;;;;;4987962;28;20034;-81
2022/11/16 02:24:43;;;;;;;0.30;0.30;;;10.30;99.90;;;;;;4975095;28;20046;-81
2022/11/16 02:27:30;;;;;;;0.38;0.38;;;10.30;99.90;;;;;;4991477;28;20045;-83
2022/11/16 02:29:57;;;;;;;0.30;0.30;;;10.30;99.90;;;;;;4990775;28;20558;-81
2022/11/16 02:32:38;;;;;;;0.32;0.32;;;10.30;99.90;;;;;;4988785;28;20040;-82
2022/11/16 02:35:24;;;;;;;0.43;0.43;;;10.30;99.90;;;;;;4998542;28;20054;-81
2022/11/16 02:37:57;;;;;;;0.45;0.45;;;10.30;99.90;;;;;;4985095;28;20057;-82
2022/11/16 02:40:29;;;;;;;0.50;0.50;;;10.30;99.90;;;;;;4988347;28;20049;-81
2022/11/16 02:43:41;;;;;;;0.60;0.60;;;10.30;99.90;;;;;;4992826;28;20046;-81
2022/11/16 02:46:11;;;;;;;0.40;0.40;;;10.30;99.90;;;;;;4971661;28;20516;-81
2022/11/16 02:48:45;;;;;;;0.30;0.30;;;10.30;99.90;;;;;;5003160;28;20049;-82
2022/11/16 02:51:12;;;;;;;0.40;0.40;;;10.30;99.90;;;;;;4991308;28;20585;-79
2022/11/16 02:53:51;;;;;;;0.57;0.57;;;10.30;99.90;;;;;;4987463;28;20092;-80
2022/11/16 02:56:17;;;;;;;0.40;0.40;;;10.30;99.90;;;;;;4987806;28;20037;-81
2022/11/16 02:58:45;;;;;;;0.38;0.38;;;10.30;99.90;;;;;;5004034;28;20108;-82
2022/11/16 03:01:19;;;;;;;0.35;0.35;;;10.30;99.90;;;;;;4991832;28;20038;-81
2022/11/16 03:03:51;;;;;;;0.40;0.40;;;10.40;99.90;;;;;;4989320;28;20038;-79
2022/11/16 03:06:23;;;;;;;0.40;0.40;;;10.40;99.90;;;;;;4990660;28;20065;-83
2022/11/16 03:09:12;;;;;;;0.40;0.40;;;10.40;99.90;;;;;;5001004;28;20076;-81
2022/11/16 03:11:59;;;;;;;0.30;0.30;;;10.30;99.90;;;;;;4989764;28;20296;-81
2022/11/16 03:14:38;;;;;;;0.50;0.50;;;10.40;99.90;;;;;;5005387;28;20524;-82
2022/11/16 03:17:09;;;;;;;0.40;0.40;;;10.40;99.90;;;;;;4985446;28;20491;-82
2022/11/16 03:19:45;;;;;;;0.40;0.40;;;10.40;99.90;;;;;;4990614;28;20151;-83
2022/11/16 03:22:21;;;;;;;0.63;0.60;;;10.30;99.90;;;;;;4993108;28;20030;-82
2022/11/16 03:24:47;;;;;;;0.50;0.50;;;10.30;99.90;;;;;;4991763;28;20033;-83
2022/11/16 03:27:25;;;;;;;0.30;0.30;;;10.30;99.90;;;;;;4988578;28;20107;-84
2022/11/16 03:30:22;;;;;;;0.50;0.50;;;10.30;99.90;;;;;;4988071;28;20049;-83
2022/11/16 03:33:02;;;;;;;0.43;0.43;;;10.30;99.90;;;;;;4981792;28;20484;-83
2022/11/16 03:35:31;;;;;;;0.40;0.40;;;10.30;99.90;;;;;;4984663;28;20625;-82
2022/11/16 03:38:00;;;;;;;0.35;0.35;;;10.30;99.90;;;;;;4979494;28;20057;-87
2022/11/16 03:40:29;;;;;;;0.55;0.55;;;10.30;99.90;;;;;;4995898;28;20510;-85
2022/11/16 03:42:56;;;;;;;0.60;0.60;;;10.30;99.90;;;;;;4989845;28;20045;-83
2022/11/16 03:45:22;;;;;;;0.55;0.55;;;10.30;99.90;;;;;;4985727;28;20088;-83
2022/11/16 03:47:48;;;;;;;0.50;0.50;;;10.30;99.90;;;;;;4958786;28;20260;-81
2022/11/16 03:50:14;;;;;;;0.30;0.30;;;10.30;99.90;;;;;;4971180;28;21877;-85
2022/11/16 03:52:40;;;;;;;0.85;0.85;;;10.30;99.90;;;;;;4968288;28;20208;-82
2022/11/16 03:55:06;;;;;;;0.40;0.40;;;10.30;99.90;;;;;;4968800;28;20057;-83
2022/11/16 03:57:32;;;;;;;0.88;0.88;;;10.30;99.90;;;;;;4984405;28;20103;-81
2022/11/16 03:59:57;;;;;;;0.82;0.82;;;10.30;99.90;;;;;;4989072;28;20045;-84
2022/11/16 04:02:23;;;;;;;0.50;0.50;;;10.30;99.90;;;;;;5003782;28;20081;-82
2022/11/16 04:24:19;;;;;;;1.65;0.70;;;10.20;99.90;;;;;;5008999;28;20121;-86
2022/11/16 04:29:35;;;;;;;0.40;0.40;;;10.20;99.90;;;;;;5002845;28;20083;-82
2022/11/16 04:37:48;;;;;;;0.50;0.50;;;10.20;99.90;;;;;;4984206;28;20053;-84
2022/11/16 04:40:15;;;;;;;0.32;0.32;;;10.20;99.90;;;;;;4969926;28;20392;-84
2022/11/16 04:42:41;;;;;;;0.30;0.30;;;10.20;99.90;;;;;;4972598;28;20077;-83
2022/11/16 04:47:52;;;;;;;0.50;0.50;;;10.20;99.90;;;;;;4987608;28;20052;-86
2022/11/16 04:50:19;;;;;;;0.40;0.40;;;10.10;99.90;;;;;;5003111;28;20325;-84
2022/11/16 04:52:45;;;;;;;0.32;0.32;;;10.10;99.90;;;;;;4987312;28;20406;-83
2022/11/16 04:55:11;;;;;;;0.40;0.40;;;10.10;99.90;;;;;;5003254;28;20046;-84
2022/11/16 04:57:37;;;;;;;0.57;0.57;;;10.10;99.90;;;;;;4974407;28;20057;-85
2022/11/16 05:00:05;;;;;;;0.93;0.73;;;10.10;99.90;;;;;;4983617;28;20045;-83
2022/11/16 05:02:31;;;;;;;0.40;0.40;;;10.10;99.90;;;;;;4985403;28;20053;-84
2022/11/16 05:04:57;;;;;;;0.55;0.55;;;10.10;99.90;;;;;;4969383;28;20391;-83
2022/11/16 05:07:22;;;;;;;0.30;0.30;;;10.10;99.90;;;;;;4998720;28;20077;-84
2022/11/16 05:09:48;;;;;;;0.88;0.88;;;10.10;99.90;;;;;;4973754;28;20119;-82
2022/11/16 05:12:26;;;;;;;0.40;0.40;;;10.10;99.90;;;;;;4971416;28;20038;-85
2022/11/16 05:14:54;;;;;;;0.40;0.40;;;10.10;99.90;;;;;;4989303;28;20046;-83
2022/11/16 05:17:20;;;;;;;0.32;0.32;;;10.10;99.90;;;;;;4986052;28;20525;-84
2022/11/16 05:22:30;;;;;;;0.50;0.50;;;10.10;99.90;;;;;;4986198;28;20307;-83
2022/11/16 05:24:56;;;;;;;0.50;0.50;;;10.10;99.90;;;;;;4975854;28;20112;-82
2022/11/16 05:27:22;;;;;;;0.30;0.30;;;10.40;99.90;;;;;;4980365;28;20053;-82
2022/11/16 05:29:48;;;;;;;0.40;0.40;;;10.10;99.90;;;;;;5005083;28;20052;-81
2022/11/16 05:32:15;;;;;;;0.52;0.52;;;10.10;99.90;;;;;;4980738;28;20088;-83
2022/11/16 05:34:42;;;;;;;0.65;0.60;;;10.20;99.90;;;;;;5011659;28;20407;-84
2022/11/16 05:37:08;;;;;;;0.57;0.57;;;10.10;99.90;;;;;;4992648;28;20038;-82
2022/11/16 05:39:34;;;;;;;0.28;0.28;;;10.20;99.90;;;;;;4972218;28;20061;-84
2022/11/16 05:42:06;;;;;;;0.55;0.55;;;10.10;99.90;;;;;;5011350;28;20420;-84
2022/11/16 05:44:32;;;;;;;0.70;0.70;;;10.10;99.90;;;;;;4977257;28;20046;-83
2022/11/16 05:46:58;;;;;;;0.30;0.30;;;10.10;99.90;;;;;;4980718;28;20042;-83
2022/11/16 05:49:24;;;;;;;0.57;0.57;;;10.10;99.90;;;;;;4992121;28;20514;-83
2022/11/16 05:51:50;;;;;;;0.47;0.47;;;10.10;99.90;;;;;;4978413;28;20064;-83
2022/11/16 05:54:21;;;;;;;0.30;0.30;;;10.10;99.90;;;;;;5005378;28;20041;-83
2022/11/16 05:56:48;;;;;;;0.40;0.40;;;10.10;99.90;;;;;;4974061;28;20042;-84
2022/11/16 05:59:15;;;;;;;0.77;0.77;;;10.20;99.90;;;;;;5002983;28;20034;-83
2022/11/16 06:01:42;;;;;;;0.63;0.63;;;10.10;99.90;;;;;;4975586;28;20543;-81
2022/11/16 06:04:08;;;;;;;1.55;1.17;;;10.10;99.90;;;;;;4995532;28;20030;-83
2022/11/16 06:06:34;;;;;;;0.80;0.80;;;10.10;99.90;;;;;;4974914;28;20124;-84
2022/11/16 06:08:59;;;;;;;0.50;0.50;;;10.10;99.90;;;;;;4980411;28;20141;-82
2022/11/16 06:11:26;;;;;;;0.50;0.50;;;10.10;99.90;;;;;;5011956;28;20042;-84
2022/11/16 06:13:51;;;;;;;0.50;0.50;;;10.20;99.90;;;;;;4968350;28;20042;-82
2022/11/16 06:16:17;;;;;;;0.50;0.50;;;10.10;99.90;;;;;;4994011;28;20108;-80
2022/11/16 06:18:45;;;;;;;0.50;0.50;;;10.20;99.90;;;;;;4994321;28;20071;-82
2022/11/16 06:21:13;;;;;;;0.40;0.40;;;10.20;99.90;;;;;;4977847;28;20048;-83
2022/11/16 06:23:39;;;;;;;0.40;0.40;;;10.10;99.90;;;;;;5003415;28;20034;-83
2022/11/16 06:26:05;;;;;;;0.52;0.52;;;10.80;99.90;;;;;;5007607;28;20415;-82
2022/11/16 06:28:31;;;;;;;0.40;0.40;;;10.10;99.90;;;;;;4973004;28;20546;-81
2022/11/16 06:30:57;;;;;;;0.30;0.30;;;10.10;99.90;;;;;;5007726;28;20088;-84
2022/11/16 06:33:23;;;;;;;0.50;0.50;;;10.10;99.90;;;;;;4967933;28;20062;-83
2022/11/16 06:35:48;;;;;;;6.30;0.82;;;10.10;99.90;;;;;;4970158;28;22218;-83
2022/11/16 06:38:17;;;;;;;0.68;0.68;;;10.10;99.90;;;;;;4984965;28;20056;-83
2022/11/16 06:40:44;;;;;;;0.40;0.40;;;10.10;99.90;;;;;;4991201;28;20318;-82
2022/11/16 06:43:10;;;;;;;0.55;0.55;;;10.10;99.90;;;;;;4990890;28;20184;-82
2022/11/16 06:45:37;;;;;;;0.40;0.40;;;10.10;99.90;;;;;;4971135;28;20046;-84
2022/11/16 06:48:02;;;;;;;;;;;10.10;99.90;;;;;;4999157;28;20046;-84
2022/11/16 06:50:28;;;;;;;0.43;0.43;;;10.10;99.90;;;;;;4987434;28;19925;-83
2022/11/16 06:52:53;;;;;;;1.55;1.38;;;10.10;99.90;;;;;;5002196;28;20054;-83
2022/11/16 06:55:19;;;;;;;0.70;0.70;;;10.40;99.90;;;;;;4974486;28;20041;-83
2022/11/16 06:57:45;;;;;;;0.60;0.60;;;10.10;99.90;;;;;;4978618;28;20038;-83
2022/11/16 07:00:11;;;;;;;0.50;0.50;;;10.20;99.90;;;;;;4960080;28;20037;-83
2022/11/16 07:02:38;;;;;;;1.13;1.10;;;10.10;99.90;;;;;;4990489;28;20118;-84
2022/11/16 07:05:05;;;;;;;0.43;0.43;;;10.10;99.90;;;;;;4965523;28;20046;-84
2022/11/16 07:07:31;;;;;;;0.40;0.40;;;10.20;99.90;;;;;;4969080;28;20105;-83
2022/11/16 07:09:57;;;;;;;0.30;0.30;;;10.20;99.90;;;;;;4971436;28;20038;-83
2022/11/16 07:12:23;;;;;;;0.30;0.30;;;10.20;99.90;;;;;;4982794;28;20050;-82
2022/11/16 07:14:48;;;;;;;0.50;0.50;;;10.20;99.90;;;;;;4961128;28;20042;-83
2022/11/16 07:17:14;;;;;;;0.73;0.73;;;10.20;99.90;;;;;;4951433;28;20140;-84
2022/11/16 07:19:40;;;;;;;0.45;0.45;;;10.20;99.90;;;;;;4993134;28;20091;-83
2022/11/16 07:22:05;;;;;;;0.57;0.50;;;10.30;99.90;;;;;;4981665;28;20040;-83
2022/11/16 07:24:31;;;;;;;0.55;0.55;;;10.20;99.90;;;;;;4975950;28;20072;-83
2022/11/16 07:26:57;;;;;;;;;;;10.30;99.90;;;;;;4984276;28;20042;-83
2022/11/16 07:29:23;;;;;;;0.35;0.35;;;10.20;99.90;;;;;;4992708;28;20200;-84
2022/11/16 07:31:49;;;;;;;1.00;1.00;;;10.20;99.90;;;;;;4973770;28;20067;-82
2022/11/16 07:34:14;;;;;;;0.40;0.40;;;10.30;99.90;;;;;;4965931;28;20077;-82
2022/11/16 07:36:40;;;;;;;0.30;0.30;;;10.20;99.90;;;;;;4963026;28;20049;-84
2022/11/16 07:39:08;;;;;;;0.38;0.38;;;10.20;99.90;;;;;;4981224;28;20725;-84
2022/11/16 07:41:34;;;;;;;0.60;0.60;;;10.20;99.90;;;;;;4982612;28;20084;-83
2022/11/16 07:44:00;;;;;;;0.38;0.38;;;10.20;99.90;;;;;;5006666;28;20046;-82
2022/11/16 07:46:25;;;;;;;0.35;0.35;;;10.20;99.90;;;;;;4972759;28;20618;-82
2022/11/16 07:48:51;;;;;;;0.40;0.40;;;10.20;99.90;;;;;;4967309;28;20048;-84
2022/11/16 07:51:18;;;;;;;0.43;0.43;;;10.20;99.90;;;;;;4981636;28;20041;-83
2022/11/16 07:53:44;;;;;;;0.40;0.40;;;10.20;99.90;;;;;;4989638;28;20052;-84
2022/11/16 07:56:10;;;;;;;;;;;10.30;99.90;;;;;;4970421;28;20042;-83
2022/11/16 07:58:36;;;;;;;0.30;0.30;;;10.20;99.90;;;;;;5001358;28;19925;-85
2022/11/16 08:01:05;;;;;;;;;;;10.20;99.90;;;;;;4998677;28;20060;-83
2022/11/16 08:03:33;;;;;;;0.50;0.50;;;10.20;99.90;;;;;;4970908;28;19921;-83
2022/11/16 08:06:01;;;;;;;0.65;0.65;;;10.20;99.90;;;;;;4980820;28;20077;-84
2022/11/16 08:08:26;;;;;;;0.40;0.40;;;10.20;99.90;;;;;;4997644;28;20175;-83
2022/11/16 08:10:58;;;;;;;0.50;0.50;;;10.20;99.90;;;;;;4983489;28;20140;-84
2022/11/16 08:13:24;;;;;;;0.68;0.68;;;10.20;99.90;;;;;;4968850;28;20104;-83
2022/11/16 08:15:49;;;;;;;0.30;0.30;;;10.20;99.90;;;;;;4986127;28;20041;-84
2022/11/16 08:18:15;;;;;;;0.38;0.38;;;10.20;99.90;;;;;;4950917;28;21524;-85
2022/11/16 08:20:41;;;;;;;0.30;0.30;;;10.20;99.90;;;;;;4982784;28;20124;-81
2022/11/16 08:23:06;;;;;;;0.30;0.30;;;10.20;99.90;;;;;;4999126;28;20046;-84
2022/11/16 08:25:32;;;;;;;0.68;0.68;;;10.20;99.90;;;;;;4985617;28;20045;-82
2022/11/16 08:27:58;;;;;;;0.50;0.50;;;10.20;99.90;;;;;;4988159;28;20498;-85
2022/11/16 08:30:23;;;;;;;0.35;0.35;;;10.20;99.90;;;;;;4985381;28;20133;-84
2022/11/16 08:32:49;;;;;;;0.40;0.40;;;10.20;99.90;;;;;;4970990;28;20131;-83
2022/11/16 08:35:15;;;;;;;0.40;0.40;;;10.20;99.90;;;;;;4964414;28;20066;-83
2022/11/16 08:37:41;;;;;;;0.40;0.40;;;10.20;99.90;;;;;;4997362;28;20528;-82
2022/11/16 08:40:07;;;;;;;0.43;0.43;;;10.30;99.90;;;;;;4970381;28;20054;-82
2022/11/16 08:42:32;;;;;;;0.30;0.30;;;10.30;99.90;;;;;;4989277;28;20419;-83
2022/11/16 08:44:58;;;;;;;0.43;0.43;;;10.30;99.90;;;;;;4984283;28;20042;-82
2022/11/16 08:47:24;;;;;;;0.40;0.40;;;10.30;99.90;;;;;;4984761;28;20467;-83
2022/11/16 08:49:49;;;;;;;0.40;0.40;;;10.30;99.90;;;;;;4984313;28;20049;-83
2022/11/16 08:52:15;;;;;;;0.45;0.45;;;10.30;99.90;;;;;;4987045;28;20050;-85
2022/11/16 08:54:41;;;;;;;0.30;0.30;;;10.30;99.90;;;;;;4969563;28;20041;-83
2022/11/16 08:57:07;;;;;;;0.57;0.57;;;10.30;99.90;;;;;;5002466;28;20492;-82
2022/11/16 08:59:32;;;;;;;0.30;0.30;;;10.30;99.90;;;;;;4986202;28;20407;-81
2022/11/16 09:01:58;;;;;;;0.65;0.65;;;10.30;99.90;;;;;;4971235;28;20038;-82
2022/11/16 09:04:24;;;;;;;0.30;0.30;;;10.30;99.90;;;;;;5003663;28;20494;-82
2022/11/16 09:06:51;;;;;;;0.50;0.50;;;10.30;99.90;;;;;;4988317;28;20448;-82
2022/11/16 09:09:17;;;;;;;0.22;0.22;;;10.30;99.90;;;;;;4976786;28;20121;-84
2022/11/16 09:11:43;;;;;;;0.22;0.22;;;10.30;99.90;;;;;;4975100;28;20053;-81
2022/11/16 09:14:09;;;;;;;0.50;0.50;;;10.40;99.90;;;;;;4985886;28;20042;-82
2022/11/16 09:16:34;;;;;;;0.32;0.32;;;10.50;99.90;;;;;;4987851;28;20105;-83
2022/11/16 09:19:00;;;;;;;0.40;0.40;;;10.40;99.90;;;;;;4986402;28;20045;-83
2022/11/16 09:21:28;;;;;;;0.40;0.40;;;10.40;99.90;;;;;;4984072;28;20125;-83
2022/11/16 09:23:55;;;;;;;0.30;0.30;;;10.50;99.90;;;;;;4985491;28;20038;-83
2022/11/16 09:26:22;;;;;;;0.43;0.43;;;10.50;99.90;;;;;;5000854;28;20074;-83
2022/11/16 09:29:00;;;;;;;1.35;0.93;;;10.50;99.90;;;;;;4974259;28;20989;-82
2022/11/16 09:31:27;;;;;;;0.40;0.40;;;10.60;99.90;;;;;;4988848;28;20092;-83
2022/11/16 09:33:57;;;;;;;0.70;0.70;;;10.50;99.90;;;;;;4989379;28;20085;-84
2022/11/16 09:36:24;;;;;;;0.30;0.30;;;10.60;99.90;;;;;;4984728;28;20045;-84
2022/11/16 09:38:53;;;;;;;0.60;0.60;;;10.60;99.90;;;;;;4989884;28;20038;-82
2022/11/16 09:41:46;;;;;;;0.40;0.40;;;10.70;99.90;;;;;;4986654;28;20274;-82
2022/11/16 09:44:30;;;;;;;0.45;0.45;;;10.70;99.90;;;;;;4975109;28;20069;-83
2022/11/16 09:46:57;;;;;;;0.40;0.40;;;10.70;99.90;;;;;;5005314;28;20041;-82
2022/11/16 09:49:38;;;;;;;0.52;0.52;;;10.80;99.90;;;;;;4986792;28;20073;-83
2022/11/16 09:52:37;;;;;;;0.40;0.40;;;10.80;99.90;;;;;;5005021;28;20034;-83
2022/11/16 09:55:30;;;;;;;0.35;0.35;;;10.80;99.90;;;;;;4962154;28;20053;-82
2022/11/16 09:58:01;;;;;;;0.40;0.40;;;10.80;99.90;;;;;;4981315;28;20046;-84
2022/11/16 10:00:29;;;;;;;0.80;0.55;;;10.80;99.90;;;;;;4985269;28;20038;-82
2022/11/16 10:03:04;;;;;;;0.77;0.77;;;10.90;99.90;;;;;;4969428;28;20042;-83
2022/11/16 10:05:42;;;;;;;0.35;0.35;;;11.00;99.90;;;;;;4993746;28;20444;-84
2022/11/16 10:08:14;;;;;;;0.40;0.40;;;11.10;99.90;;;;;;4948884;28;20077;-82
2022/11/16 10:10:51;;;;;;;0.32;0.32;;;11.20;99.90;;;;;;4975301;28;20129;-82
2022/11/16 10:13:55;;;;;;;0.30;0.30;;;11.40;99.90;;;;;;4988159;28;20054;-82
2022/11/16 10:16:34;;;;;;;0.40;0.40;;;11.40;99.90;;;;;;4969175;28;20175;-82
2022/11/16 10:19:24;;;;;;;0.50;0.50;;;11.50;99.90;;;;;;5005619;28;20076;-82
2022/11/16 10:22:09;;;;;;;1.20;1.10;;;11.50;99.90;;;;;;4987872;28;20133;-83
2022/11/16 10:24:57;;;;;;;0.43;0.43;;;11.50;99.90;;;;;;4992544;28;20503;-83
2022/11/16 10:27:33;;;;;;;0.50;0.50;;;11.60;99.90;;;;;;4977530;28;20407;-83
2022/11/16 10:30:08;;;;;;;1.02;0.70;;;11.60;99.90;;;;;;4965211;28;20053;-81
2022/11/16 10:32:44;;;;;;;0.30;0.30;;;11.60;99.90;;;;;;4989701;28;20049;-83
2022/11/16 10:35:10;;;;;;;0.40;0.40;;;11.70;99.90;;;;;;5004267;28;20080;-84
2022/11/16 10:37:49;;;;;;;0.40;0.40;;;11.70;99.90;;;;;;4975267;28;20491;-81
2022/11/16 10:40:18;;;;;;;0.40;0.40;;;11.80;99.90;;;;;;4994008;28;20061;-82
2022/11/16 10:42:50;;;;;;;0.82;0.82;;;11.90;99.90;;;;;;4984369;28;20045;-82
2022/11/16 10:45:27;;;;;;;0.47;0.47;;;11.90;99.90;;;;;;4942785;28;20038;-84
2022/11/16 10:48:02;;;;;;;0.40;0.40;;;11.90;99.90;;;;;;4991436;28;20041;-83
2022/11/16 10:50:46;;;;;;;0.30;0.30;;;11.80;99.90;;;;;;4980368;28;20835;-82
2022/11/16 10:53:14;;;;;;;0.30;0.30;;;11.80;99.90;;;;;;4983622;28;20153;-83
2022/11/16 10:55:42;;;;;;;0.40;0.40;;;11.90;99.90;;;;;;4985226;28;20048;-83
2022/11/16 10:58:07;;;;;;;1.05;1.05;;;11.90;99.90;;;;;;4997660;28;20476;-82
2022/11/16 11:00:36;;;;;;;0.30;0.30;;;12.00;99.90;;;;;;4963655;28;20192;-82
2022/11/16 11:03:02;;;;;;;0.65;0.65;;;12.00;99.90;;;;;;4983157;28;20173;-83
2022/11/16 11:05:28;;;;;;;;;;;12.10;99.90;;;;;;4982556;28;20038;-82
2022/11/16 11:08:09;;;;;;;0.47;0.47;;;12.10;99.90;;;;;;4983082;28;20433;-82
2022/11/16 11:10:38;;;;;;;0.60;0.57;;;12.10;99.90;;;;;;4983851;28;20060;-83
2022/11/16 11:13:04;;;;;;;0.40;0.40;;;12.10;99.90;;;;;;4989904;28;20069;-83
2022/11/16 11:15:30;;;;;;;0.50;0.50;;;12.10;99.90;;;;;;5003074;28;20127;-81
2022/11/16 11:18:14;;;;;;;0.63;0.63;;;12.20;99.90;;;;;;4979560;28;20053;-84
2022/11/16 11:20:43;;;;;;;0.65;0.65;;;12.40;99.90;;;;;;4974889;28;20041;-83
2022/11/16 11:23:11;;;;;;;4.15;0.90;;;12.50;99.90;;;;;;4953332;28;20053;-83
2022/11/16 11:25:54;;;;;;;0.38;0.38;;;12.50;99.90;;;;;;4969313;28;20383;-83
2022/11/16 11:28:31;;;;;;;0.90;0.52;;;12.40;99.90;;;;;;4983156;28;20038;-82
2022/11/16 11:31:26;;;;;;;0.40;0.40;;;12.40;99.90;;;;;;4957259;28;20045;-82
2022/11/16 11:33:55;;;;;;;0.65;0.65;;;12.40;99.90;;;;;;4981592;28;20099;-83
2022/11/16 11:36:31;;;;;;;5.10;0.90;;;12.40;99.90;;;;;;4988675;28;20050;-83
2022/11/16 11:39:04;;;;;;;0.55;0.55;;;12.30;99.90;;;;;;4976186;28;20048;-81
2022/11/16 11:41:39;;;;;;;0.52;0.45;;;12.20;99.90;;;;;;4980512;28;20045;-83
2022/11/16 11:44:18;;;;;;;0.30;0.30;;;12.20;99.90;;;;;;4984638;28;20472;-84
2022/11/16 11:46:53;;;;;;;6.07;0.68;;;12.20;99.90;;;;;;4935546;28;20081;-84
2022/11/16 11:49:31;;;;;;;1.20;0.95;;;12.20;99.90;;;;;;4973206;28;20720;-82
2022/11/16 11:52:16;;;;;;;0.47;0.47;;;12.10;99.90;;;;;;4953758;28;20577;-83
2022/11/16 11:54:46;;;;;;;0.50;0.50;;;12.00;99.90;;;;;;4963228;28;20135;-83
2022/11/16 11:57:19;;;;;;;1.27;1.05;;;12.00;99.90;;;;;;5001604;28;20057;-82
2022/11/16 11:59:45;;;;;;;0.82;0.82;;;11.90;99.90;;;;;;4984347;28;20053;-83
2022/11/16 12:02:36;;;;;;;0.88;0.88;;;11.80;99.90;;;;;;4985091;28;20439;-82
2022/11/16 12:05:04;;;;;;;0.40;0.40;;;11.80;99.90;;;;;;4957037;28;20077;-81
2022/11/16 12:07:36;;;;;;;0.47;0.47;;;11.80;99.90;;;;;;4986100;28;20408;-82
2022/11/16 12:10:26;;;;;;;0.60;0.60;;;11.90;99.90;;;;;;4976472;28;20050;-82
2022/11/16 12:13:24;;;;;;;0.95;0.95;;;12.10;99.90;;;;;;4970986;28;20045;-82
2022/11/16 12:16:05;;;;;;;0.30;0.30;;;12.20;99.90;;;;;;4976248;28;20112;-83
2022/11/16 12:18:55;;;;;;;0.57;0.52;;;12.50;99.90;;;;;;4957118;28;20664;-83
2022/11/16 12:21:30;;;;;;;0.30;0.30;;;12.50;99.90;;;;;;4978044;28;20033;-84
2022/11/16 12:24:07;;;;;;;0.80;0.80;;;12.50;99.90;;;;;;4975596;28;20483;-82
2022/11/16 12:26:46;;;;;;;0.40;0.40;;;12.50;99.90;;;;;;4968595;28;20052;-83
2022/11/16 12:29:20;;;;;;;0.40;0.40;;;12.50;99.90;;;;;;4994184;28;20061;-83
2022/11/16 12:32:14;;;;;;;0.45;0.45;;;12.50;99.90;;;;;;4978104;28;20042;-83
2022/11/16 12:35:26;;;;;;;0.40;0.40;;;12.60;99.90;;;;;;4983028;28;21707;-82
2022/11/16 12:37:57;;;;;;;0.73;0.73;;;12.80;99.90;;;;;;4966132;28;20188;-82
2022/11/16 12:40:53;;;;;;;0.65;0.65;;;12.90;99.90;;;;;;4991386;28;20144;-82
2022/11/16 12:43:37;;;;;;;0.40;0.40;;;13.70;99.90;;;;;;4954261;28;20049;-83
2022/11/16 12:46:14;;;;;;;0.98;0.95;;;13.10;99.90;;;;;;5006142;28;20046;-82
2022/11/16 12:48:56;;;;;;;0.30;0.30;;;13.10;99.90;;;;;;4986449;28;20045;-81
2022/11/16 12:51:21;;;;;;;0.60;0.60;;;13.10;99.90;;;;;;4986667;28;20054;-83
2022/11/16 12:53:59;;;;;;;1.90;1.27;;;13.00;99.90;;;;;;4983251;28;20050;-81
2022/11/16 12:56:59;;;;;;;0.85;0.85;;;13.00;99.90;;;;;;4983406;28;20096;-82
2022/11/16 12:59:33;;;;;;;0.40;0.40;;;12.90;99.90;;;;;;4985178;28;20046;-83
2022/11/16 13:02:11;;;;;;;0.30;0.30;;;12.80;99.90;;;;;;4990387;28;20049;-83
2022/11/16 13:04:49;;;;;;;0.30;0.30;;;12.60;99.90;;;;;;5000992;28;20048;-84
2022/11/16 13:07:28;;;;;;;0.40;0.40;;;12.70;99.90;;;;;;4993766;28;20050;-83
2022/11/16 13:10:01;;;;;;;0.82;0.63;;;12.70;99.90;;;;;;4983219;28;20484;-84
2022/11/16 13:12:29;;;;;;;0.55;0.55;;;12.60;99.90;;;;;;4993052;28;20058;-83
2022/11/16 13:14:58;;;;;;;0.70;0.70;;;12.60;99.90;;;;;;4976083;28;20488;-83
2022/11/16 13:17:30;;;;;;;0.73;0.73;;;12.30;99.90;;;;;;5003014;28;20050;-83
2022/11/16 13:20:33;;;;;;;0.40;0.40;;;12.30;99.90;;;;;;5000203;28;20034;-83
2022/11/16 13:22:58;;;;;;;0.40;0.40;;;12.30;99.90;;;;;;4988933;28;20050;-83
2022/11/16 13:25:33;;;;;;;0.75;0.75;;;12.20;99.90;;;;;;4986208;28;20141;-83
2022/11/16 13:28:16;;;;;;;0.40;0.40;;;12.10;99.90;;;;;;4978719;28;20077;-83
2022/11/16 13:31:09;;;;;;;0.20;0.20;;;12.10;99.90;;;;;;4975273;28;20415;-83
2022/11/16 13:33:46;;;;;;;0.30;0.30;;;12.00;99.90;;;;;;4949880;28;20046;-83
2022/11/16 13:36:39;;;;;;;0.40;0.40;;;12.00;99.90;;;;;;4980917;28;20049;-82
2022/11/16 13:39:13;;;;;;;0.45;0.45;;;12.10;99.90;;;;;;4977891;28;20129;-83
2022/11/16 13:41:48;;;;;;;0.30;0.30;;;12.10;99.90;;;;;;4972336;28;20079;-83
2022/11/16 13:44:19;;;;;;;0.40;0.40;;;12.20;99.90;;;;;;4977730;28;20129;-83